Snowdon, United Kingdom
Current Conditions -  °F | °C
As of 12:50 AM on Sunday 23 Nov 2014 (Local Time) from EGOV Reporting Station
Broken Clouds Broken Clouds  
Wind Chill: 45°   Ceiling: 13000
Heat Index: 48°   Visibility: 6mi
Dew Point: 43°   Wind: 8mph
Humidity: 82%   Direction: 290°WNW
Pressure: 30"   Gusts: NA
Location:  53.07°N, 4.08°W
Report Text: EGOV 230050Z AUTO 29007KT 9999 BKN130/// BKN200/// 09/06 Q1016
Loading
Personal Weather Stations






























Interactive Weather Map New forecast layout! Learn more

10-Day Weather Forecast

Advertisements
Track Severe Weather on mobile